Time;durP1;ratioP1;P1;durP2;ratioP2;P2;SDS_P1;SDS_P2;PMS_P1;PMS_P2;Temp;Humidity;BMP_temperature;BMP_pressure;BME280_temperature;BME280_humidity;BME280_pressure;Samples;Min_cycle;Max_cycle;Signal;HPM_P1;HPM_P2
2021/12/03 00:02:04;;;;;;;7.30;6.70;;;2.80;1.00;3.90;99880.00;;;;4984263;28;20483;-76
2021/12/03 00:04:33;;;;;;;7.83;7.13;;;2.80;1.00;3.90;99940.00;;;;4986857;28;20452;-76
2021/12/03 00:07:01;;;;;;;8.53;7.73;;;2.70;1.00;3.90;99929.00;;;;4956399;28;20496;-76
2021/12/03 00:09:34;;;;;;;7.80;7.10;;;2.70;1.00;3.90;99902.00;;;;4949058;28;20507;-75
2021/12/03 00:12:04;;;;;;;6.53;6.03;;;2.70;1.00;3.80;99933.00;;;;4957829;28;20458;-76
2021/12/03 00:14:35;;;;;;;7.17;6.47;;;2.70;1.00;3.80;99952.00;;;;4961498;28;20463;-75
2021/12/03 00:17:05;;;;;;;7.47;6.83;;;2.80;1.00;3.80;99948.00;;;;4961935;28;20460;-75
2021/12/03 00:19:33;;;;;;;8.50;7.60;;;2.70;1.00;3.80;99926.00;;;;4965329;28;20456;-75
2021/12/03 00:22:02;;;;;;;9.20;8.10;;;2.80;1.00;3.80;99911.00;;;;4968431;28;20448;-77
2021/12/03 00:24:30;;;;;;;9.07;8.27;;;2.70;1.00;3.70;99932.00;;;;4976589;28;20456;-74
2021/12/03 00:26:58;;;;;;;8.90;8.10;;;2.60;1.00;3.80;99955.00;;;;4967605;28;20836;-75
2021/12/03 00:29:27;;;;;;;8.93;8.23;;;2.70;1.00;3.70;99968.00;;;;4981300;28;20463;-76
2021/12/03 00:31:57;;;;;;;8.60;7.87;;;2.60;1.00;3.80;99957.00;;;;4972067;28;20563;-76
2021/12/03 00:34:27;;;;;;;8.33;7.53;;;2.60;1.00;3.70;99963.00;;;;4953445;28;20463;-77
2021/12/03 00:36:58;;;;;;;12.17;9.13;;;2.50;1.00;3.70;99961.00;;;;4961323;28;20452;-76
2021/12/03 00:39:27;;;;;;;8.10;7.33;;;2.40;1.00;3.70;99983.00;;;;4960502;28;21061;-76
2021/12/03 00:41:58;;;;;;;8.40;7.70;;;2.30;1.00;3.60;99966.00;;;;4954475;28;20471;-77
2021/12/03 00:44:29;;;;;;;8.07;7.20;;;2.30;1.00;3.60;99968.00;;;;4961248;28;20939;-77
2021/12/03 00:47:00;;;;;;;8.17;7.37;;;2.30;1.00;3.50;99984.00;;;;4957754;28;20884;-77
2021/12/03 00:49:28;;;;;;;8.70;7.80;;;2.40;1.00;3.60;99977.00;;;;4976619;28;20456;-77
2021/12/03 00:51:57;;;;;;;8.83;8.03;;;2.40;1.00;3.50;99970.00;;;;4977126;28;20444;-77
2021/12/03 00:54:25;;;;;;;7.57;6.90;;;2.30;1.00;3.50;99993.00;;;;4978141;28;20456;-77
2021/12/03 00:56:53;;;;;;;8.17;7.40;;;2.30;1.00;3.50;99982.00;;;;4977069;28;20468;-76
2021/12/03 00:59:22;;;;;;;8.13;7.33;;;2.30;1.00;3.40;99961.00;;;;4964638;28;20484;-76
2021/12/03 01:01:50;;;;;;;8.20;6.93;;;2.20;1.00;3.40;99989.00;;;;4970153;28;20535;-76
2021/12/03 01:04:20;;;;;;;8.20;7.50;;;2.10;1.00;3.30;99987.00;;;;4977828;28;20514;-76
2021/12/03 01:06:49;;;;;;;7.60;6.90;;;2.20;1.00;3.30;99939.00;;;;4962834;28;20474;-77
2021/12/03 01:09:17;;;;;;;8.43;7.53;;;2.20;1.00;3.30;99978.00;;;;4980587;28;20540;-77
2021/12/03 01:11:46;;;;;;;8.40;7.57;;;2.20;1.00;3.30;99985.00;;;;4965958;28;20505;-76
2021/12/03 01:14:14;;;;;;;8.23;7.47;;;2.20;1.00;3.30;99994.00;;;;4969780;28;20448;-76
2021/12/03 01:16:43;;;;;;;9.20;8.30;;;2.20;1.00;3.20;99985.00;;;;4990133;28;20471;-76
2021/12/03 01:19:13;;;;;;;9.27;8.20;;;2.10;1.00;3.10;99993.00;;;;4967536;28;21055;-77
2021/12/03 01:21:43;;;;;;;8.97;8.07;;;2.00;1.00;3.10;99990.00;;;;4966359;28;20468;-76
2021/12/03 01:24:12;;;;;;;9.73;8.83;;;1.90;1.00;3.00;99971.00;;;;4978099;28;20459;-76
2021/12/03 01:26:42;;;;;;;9.17;8.37;;;1.90;1.00;3.00;99988.00;;;;4961463;28;20474;-76
2021/12/03 01:29:10;;;;;;;11.13;8.53;;;1.80;1.00;3.00;99965.00;;;;4977680;28;20526;-76
2021/12/03 01:31:39;;;;;;;9.50;8.60;;;1.80;1.00;3.00;99954.00;;;;4960047;28;20667;-77
2021/12/03 01:34:07;;;;;;;11.03;9.60;;;1.70;1.00;2.90;100014.00;;;;4979048;28;20475;-75
2021/12/03 01:36:36;;;;;;;9.73;8.43;;;1.70;1.00;2.90;100007.00;;;;4973735;28;20896;-75
2021/12/03 01:39:07;;;;;;;9.50;8.60;;;1.70;1.00;2.90;99953.00;;;;4959385;28;20464;-77
2021/12/03 01:41:35;;;;;;;9.27;8.37;;;1.60;1.00;3.00;100008.00;;;;4975728;28;20459;-76
2021/12/03 01:44:04;;;;;;;9.90;8.90;;;1.60;1.00;2.90;100010.00;;;;4958212;29;20988;-77
2021/12/03 01:46:33;;;;;;;9.80;8.80;;;1.40;1.00;2.90;100018.00;;;;4985081;28;20483;-76
2021/12/03 01:49:04;;;;;;;11.33;9.27;;;1.40;1.00;2.90;100004.00;;;;4997887;28;20451;-76
2021/12/03 01:51:33;;;;;;;10.60;9.03;;;1.30;1.00;2.90;100008.00;;;;4989716;28;20468;-75
2021/12/03 01:54:02;;;;;;;12.90;10.37;;;1.20;1.00;2.80;99986.00;;;;4954750;29;20453;-75
2021/12/03 01:56:32;;;;;;;20.43;10.27;;;1.10;1.00;2.70;100002.00;;;;4959948;28;20489;-76
2021/12/03 01:59:00;;;;;;;11.60;9.60;;;1.10;1.00;2.40;100037.00;;;;4977674;28;20471;-76
2021/12/03 02:01:29;;;;;;;15.83;10.50;;;1.20;1.00;2.50;100024.00;;;;4977723;28;20463;-75
2021/12/03 02:04:00;;;;;;;14.93;10.43;;;1.10;1.00;2.70;100019.00;;;;4995508;28;20490;-75
2021/12/03 02:06:30;;;;;;;11.37;9.80;;;1.10;1.00;2.60;100022.00;;;;4988210;28;20550;-76
2021/12/03 02:09:00;;;;;;;12.73;11.00;;;1.20;1.00;2.60;99979.00;;;;4991705;28;20453;-75
2021/12/03 02:11:31;;;;;;;11.97;10.77;;;1.20;1.00;2.60;100021.00;;;;4977259;28;20485;-76
2021/12/03 02:14:00;;;;;;;11.53;10.33;;;1.20;1.00;2.60;100002.00;;;;4974776;28;20511;-76
2021/12/03 02:16:28;;;;;;;11.63;10.53;;;1.40;1.00;2.50;100026.00;;;;4962415;28;20485;-74
2021/12/03 02:18:57;;;;;;;11.97;10.77;;;1.50;1.00;2.50;100005.00;;;;4957017;28;20544;-75
2021/12/03 02:21:27;;;;;;;12.00;10.70;;;1.50;1.00;2.40;100018.00;;;;4990898;28;20454;-75
2021/12/03 02:23:56;;;;;;;11.67;10.57;;;1.50;1.00;2.50;100025.00;;;;4975841;28;20443;-75
2021/12/03 02:26:25;;;;;;;12.80;11.57;;;1.40;1.00;2.50;99976.00;;;;4975831;28;20467;-75
2021/12/03 02:28:53;;;;;;;12.03;10.83;;;1.40;1.00;2.60;100023.00;;;;4976421;28;20443;-75
2021/12/03 02:31:25;;;;;;;12.63;11.33;;;1.50;1.00;2.60;100003.00;;;;4975939;28;20479;-75
2021/12/03 02:33:55;;;;;;;13.00;11.80;;;1.40;1.00;2.60;100026.00;;;;4963755;28;20464;-74
2021/12/03 02:36:23;;;;;;;12.97;11.67;;;1.30;1.00;2.60;100023.00;;;;4955629;28;20471;-75
2021/12/03 02:38:53;;;;;;;13.63;12.10;;;1.30;1.00;2.60;100029.00;;;;4956356;28;20639;-76
2021/12/03 02:41:22;;;;;;;14.00;12.60;;;1.30;1.00;2.50;100035.00;;;;4974255;28;20552;-75
2021/12/03 02:43:50;;;;;;;12.70;11.40;;;1.30;1.00;2.50;100033.00;;;;4974283;28;20447;-75
2021/12/03 02:46:19;;;;;;;13.13;11.90;;;1.40;1.00;2.40;100029.00;;;;4956027;28;20487;-75
2021/12/03 02:48:47;;;;;;;13.37;12.10;;;1.50;1.00;2.50;100042.00;;;;4974586;28;20455;-74
2021/12/03 02:51:16;;;;;;;14.53;13.13;;;1.40;1.00;2.50;100010.00;;;;4957507;28;20829;-76
2021/12/03 02:53:44;;;;;;;13.33;12.03;;;1.50;1.00;2.50;100047.00;;;;4975979;28;20456;-76
2021/12/03 02:56:14;;;;;;;13.80;12.53;;;1.50;1.00;2.30;100043.00;;;;4959918;28;20470;-77
2021/12/03 02:58:43;;;;;;;13.77;12.37;;;1.50;1.00;2.50;100036.00;;;;4997894;28;20490;-76
2021/12/03 03:01:12;;;;;;;13.57;12.27;;;1.50;1.00;2.50;100057.00;;;;4998520;28;20512;-76
2021/12/03 03:03:40;;;;;;;15.70;14.20;;;1.50;1.00;2.50;100035.00;;;;4999234;28;20411;-77
2021/12/03 03:06:09;;;;;;;16.07;14.37;;;1.50;1.00;2.50;100041.00;;;;4981796;28;20466;-78
2021/12/03 03:08:40;;;;;;;14.80;13.30;;;1.50;1.00;2.40;100061.00;;;;4999825;28;20423;-77
2021/12/03 03:11:08;;;;;;;17.07;15.40;;;1.50;1.00;2.40;100041.00;;;;4999641;28;20438;-76
2021/12/03 03:13:38;;;;;;;18.27;15.10;;;1.40;1.00;2.50;100053.00;;;;4982914;28;20462;-76
2021/12/03 03:16:07;;;;;;;15.43;13.90;;;1.40;1.00;2.40;100044.00;;;;4982390;28;20533;-76
2021/12/03 03:18:36;;;;;;;17.30;15.67;;;1.50;1.00;2.50;100058.00;;;;4978622;28;20448;-76
2021/12/03 03:21:08;;;;;;;16.10;14.40;;;1.50;1.00;2.50;100066.00;;;;4957048;28;20452;-76
2021/12/03 03:23:37;;;;;;;15.20;13.63;;;1.50;1.00;2.50;100074.00;;;;4973113;28;20451;-76
2021/12/03 03:26:06;;;;;;;17.03;15.33;;;1.50;1.00;2.50;100059.00;;;;4977541;28;20479;-74
2021/12/03 03:28:39;;;;;;;16.77;15.17;;;1.50;1.00;2.50;100061.00;;;;4973799;28;20451;-75
2021/12/03 03:31:08;;;;;;;15.33;13.93;;;1.50;1.00;2.50;100069.00;;;;4973494;28;20420;-75
2021/12/03 03:33:37;;;;;;;16.87;15.30;;;1.60;1.00;2.60;100095.00;;;;4973514;28;20482;-75
2021/12/03 03:36:06;;;;;;;15.10;13.80;;;1.70;1.00;2.50;100054.00;;;;4956182;28;21012;-75
2021/12/03 03:38:35;;;;;;;15.10;13.80;;;1.70;1.00;2.50;100051.00;;;;4960355;28;20455;-75
2021/12/03 03:41:04;;;;;;;16.40;14.90;;;1.70;1.00;2.50;100070.00;;;;4957399;28;20451;-75
2021/12/03 03:43:33;;;;;;;16.70;15.17;;;1.70;1.00;2.50;100057.00;;;;4960248;28;20455;-74
2021/12/03 03:46:03;;;;;;;18.30;16.40;;;1.60;1.00;2.40;100062.00;;;;4960577;28;20570;-75
2021/12/03 03:48:32;;;;;;;17.17;15.50;;;1.50;1.00;2.40;99994.00;;;;4959348;28;20534;-77
2021/12/03 03:51:00;;;;;;;17.50;15.80;;;1.40;1.00;2.30;100082.00;;;;4989992;28;20831;-77
2021/12/03 03:53:29;;;;;;;17.23;15.70;;;1.30;1.00;2.30;100057.00;;;;4959994;28;20468;-76
2021/12/03 03:55:57;;;;;;;18.03;16.23;;;1.30;1.00;2.20;100087.00;;;;4954555;28;20464;-77
2021/12/03 03:58:26;;;;;;;19.10;17.30;;;1.30;1.00;2.20;100081.00;;;;4978522;28;20476;-76
2021/12/03 04:00:54;;;;;;;17.67;15.90;;;1.30;1.00;2.20;100093.00;;;;4971817;28;20463;-76
2021/12/03 04:03:24;;;;;;;18.07;16.27;;;1.30;1.00;2.20;100089.00;;;;4973740;28;20459;-76
2021/12/03 04:05:53;;;;;;;19.10;17.20;;;1.30;1.00;2.20;100097.00;;;;4976258;28;20482;-76
2021/12/03 04:08:22;;;;;;;19.63;17.53;;;1.30;1.00;2.10;100058.00;;;;4961813;28;20447;-76
2021/12/03 04:10:51;;;;;;;19.77;17.77;;;1.20;1.00;2.10;100083.00;;;;4978941;28;20435;-76
2021/12/03 04:13:20;;;;;;;19.23;17.33;;;1.20;1.00;2.10;100052.00;;;;4976748;28;20869;-77
2021/12/03 04:15:48;;;;;;;21.90;19.03;;;1.20;1.00;2.20;100099.00;;;;4978727;28;20826;-77
2021/12/03 04:18:17;;;;;;;20.30;18.20;;;1.10;1.00;2.20;100099.00;;;;4979579;28;20436;-77
2021/12/03 04:20:48;;;;;;;20.53;18.50;;;1.20;1.00;2.20;100099.00;;;;4977980;28;20510;-77
2021/12/03 04:23:18;;;;;;;20.03;18.13;;;1.20;1.00;1.90;100088.00;;;;4958697;28;20455;-77
2021/12/03 04:25:48;;;;;;;20.90;18.80;;;1.20;1.00;2.10;100086.00;;;;4977117;28;20467;-77
2021/12/03 04:28:18;;;;;;;20.97;18.83;;;1.30;1.00;2.20;100095.00;;;;4979818;28;20462;-77
2021/12/03 04:30:48;;;;;;;20.23;18.23;;;1.30;1.00;2.20;100102.00;;;;4961614;28;20441;-77
2021/12/03 04:33:17;;;;;;;20.17;18.27;;;1.40;1.00;2.20;100109.00;;;;4978541;28;20996;-77
2021/12/03 04:35:48;;;;;;;20.87;18.77;;;1.40;1.00;2.20;100090.00;;;;4978109;28;20547;-77
2021/12/03 04:38:16;;;;;;;20.67;18.57;;;1.40;1.00;2.20;100103.00;;;;4977272;28;20452;-77
2021/12/03 04:40:46;;;;;;;20.27;18.27;;;1.40;1.00;2.10;100098.00;;;;4980459;28;20451;-77
2021/12/03 04:43:14;;;;;;;20.40;18.40;;;1.30;1.00;2.10;100094.00;;;;4978339;28;20443;-77
2021/12/03 04:45:43;;;;;;;21.13;19.13;;;1.20;1.00;2.10;100105.00;;;;4964633;28;20479;-77
2021/12/03 04:48:12;;;;;;;20.43;18.43;;;1.20;1.00;2.10;100112.00;;;;4997500;28;20456;-77
2021/12/03 04:50:43;;;;;;;19.30;17.37;;;1.10;1.00;2.00;100097.00;;;;4967093;28;20451;-76
2021/12/03 04:53:13;;;;;;;22.20;19.90;;;1.10;1.00;2.00;100095.00;;;;4979221;28;20493;-76
2021/12/03 04:55:42;;;;;;;20.83;18.87;;;1.00;1.00;2.00;100076.00;;;;4963925;28;20575;-77
2021/12/03 04:58:11;;;;;;;21.00;18.13;;;1.00;1.00;2.00;100096.00;;;;4981534;28;20506;-77
2021/12/03 05:00:43;;;;;;;21.93;19.70;;;1.00;1.00;1.90;100103.00;;;;4965638;28;20444;-77
2021/12/03 05:03:13;;;;;;;19.30;17.30;;;1.00;1.00;1.90;100110.00;;;;4977890;28;20460;-76
2021/12/03 05:05:50;;;;;;;20.83;18.00;;;1.00;1.00;1.80;100130.00;;;;4977173;28;20503;-76
2021/12/03 05:08:20;;;;;;;19.53;17.53;;;0.90;1.00;1.80;100132.00;;;;4980108;28;20423;-77
2021/12/03 05:10:49;;;;;;;18.93;16.93;;;0.90;1.00;1.80;100096.00;;;;4980587;28;20440;-77
2021/12/03 05:13:21;;;;;;;22.40;17.43;;;0.90;1.00;1.80;100109.00;;;;4961733;28;20490;-77
2021/12/03 05:15:50;;;;;;;18.90;16.30;;;0.90;1.00;1.80;100113.00;;;;4960825;28;20464;-77
2021/12/03 05:18:20;;;;;;;19.30;17.30;;;0.90;1.00;1.80;100117.00;;;;4977728;28;21257;-77
2021/12/03 05:20:52;;;;;;;19.97;17.97;;;0.80;1.00;1.70;100120.00;;;;4982995;28;20452;-77
2021/12/03 05:23:24;;;;;;;19.30;17.30;;;0.80;1.00;1.70;100056.00;;;;4981708;28;20427;-77
2021/12/03 05:25:53;;;;;;;18.37;16.47;;;0.80;1.00;1.80;100131.00;;;;4959515;28;20478;-77
2021/12/03 05:28:22;;;;;;;19.00;17.00;;;0.80;1.00;1.80;100106.00;;;;4960786;28;20547;-78
2021/12/03 05:30:50;;;;;;;20.40;18.33;;;0.80;1.00;1.80;100106.00;;;;4977093;28;20456;-77
2021/12/03 05:33:20;;;;;;;19.60;17.33;;;0.80;1.00;1.80;100118.00;;;;4975405;28;20570;-76
2021/12/03 05:35:49;;;;;;;20.20;17.93;;;0.70;1.00;1.80;100106.00;;;;4951161;28;20468;-77
2021/12/03 05:38:17;;;;;;;19.27;17.27;;;0.70;1.00;1.70;100124.00;;;;4957544;28;20798;-76
2021/12/03 05:40:48;;;;;;;18.60;16.60;;;0.70;1.00;1.70;100103.00;;;;4949117;28;20447;-77
2021/12/03 05:43:17;;;;;;;19.63;17.17;;;0.70;1.00;1.70;100123.00;;;;4976083;28;20490;-76
2021/12/03 05:45:46;;;;;;;20.33;17.73;;;0.70;1.00;1.70;100124.00;;;;4979914;28;20497;-76
2021/12/03 05:48:15;;;;;;;19.73;17.73;;;0.70;1.00;1.70;100126.00;;;;4971525;28;20524;-76
2021/12/03 05:50:45;;;;;;;20.10;18.00;;;0.70;1.00;1.70;100129.00;;;;4949455;28;20452;-76
2021/12/03 05:53:13;;;;;;;20.07;17.10;;;0.60;1.00;1.70;100144.00;;;;4960194;28;20471;-77
2021/12/03 05:55:42;;;;;;;19.43;16.80;;;0.70;1.00;1.70;100111.00;;;;4961414;28;20482;-77
2021/12/03 05:58:12;;;;;;;21.27;18.03;;;0.70;1.00;1.70;100135.00;;;;4959832;28;20461;-77
2021/12/03 06:00:43;;;;;;;18.00;16.10;;;0.70;1.00;1.70;100143.00;;;;4960490;28;20462;-76
2021/12/03 06:03:12;;;;;;;19.27;15.30;;;0.70;1.00;1.70;100151.00;;;;4978540;28;20459;-76
2021/12/03 06:05:42;;;;;;;16.40;14.47;;;0.70;1.00;1.60;100112.00;;;;4960943;28;20480;-76
2021/12/03 06:08:12;;;;;;;16.03;14.07;;;0.70;1.00;1.60;100096.00;;;;4959676;28;20444;-77
2021/12/03 06:10:41;;;;;;;18.40;14.50;;;0.70;1.00;1.60;100137.00;;;;4960480;28;20466;-76
2021/12/03 06:13:10;;;;;;;15.30;13.50;;;0.70;1.00;1.60;100146.00;;;;4976725;28;20471;-77
2021/12/03 06:15:39;;;;;;;17.57;14.37;;;0.60;1.00;1.60;100093.00;;;;4979304;28;20480;-77
2021/12/03 06:18:07;;;;;;;17.53;15.20;;;0.60;1.00;1.60;100127.00;;;;4978157;28;20522;-76
2021/12/03 06:20:36;;;;;;;16.67;14.47;;;0.60;1.00;1.50;100145.00;;;;4977124;28;20456;-77
2021/12/03 06:23:04;;;;;;;17.60;14.13;;;0.60;1.00;1.50;100140.00;;;;4980202;28;20480;-75
2021/12/03 06:25:33;;;;;;;15.70;13.40;;;0.60;1.00;1.50;100145.00;;;;4988302;28;20468;-76
2021/12/03 06:28:01;;;;;;;17.80;13.97;;;0.50;1.00;1.50;100157.00;;;;4980736;28;20490;-78
2021/12/03 06:30:31;;;;;;;19.57;14.10;;;0.60;1.00;1.50;100140.00;;;;4966071;28;20464;-77
2021/12/03 06:33:00;;;;;;;20.27;14.07;;;0.60;1.00;1.50;100171.00;;;;4977187;28;20574;-76
2021/12/03 06:35:28;;;;;;;16.20;13.83;;;0.50;1.00;1.50;100134.00;;;;4972247;28;21020;-77
2021/12/03 06:37:57;;;;;;;15.90;13.30;;;0.50;1.00;1.50;100157.00;;;;4949441;28;20479;-76
2021/12/03 06:40:27;;;;;;;17.33;13.87;;;0.60;1.00;1.50;100149.00;;;;4968315;28;20462;-76
2021/12/03 06:42:56;;;;;;;16.63;13.20;;;0.50;1.00;1.50;100173.00;;;;4957630;28;21013;-76
2021/12/03 06:45:25;;;;;;;17.20;12.43;;;0.50;1.00;1.50;100189.00;;;;4957158;28;20519;-76
2021/12/03 06:47:55;;;;;;;14.90;11.73;;;0.50;1.00;1.50;100202.00;;;;4972912;28;20468;-76
2021/12/03 06:50:24;;;;;;;15.80;13.50;;;0.60;1.00;1.50;100201.00;;;;4977181;28;20546;-77
2021/12/03 06:52:59;;;;;;;15.13;12.30;;;0.60;1.00;1.50;100199.00;;;;4959389;28;20465;-76
2021/12/03 06:55:27;;;;;;;12.40;10.97;;;0.60;1.00;1.50;100157.00;;;;4966056;28;20467;-77
2021/12/03 06:57:56;;;;;;;12.70;11.13;;;0.70;1.00;1.50;100094.00;;;;4972734;28;20463;-76
2021/12/03 07:00:24;;;;;;;12.77;11.03;;;0.60;1.00;1.50;100193.00;;;;4951209;28;20463;-76
2021/12/03 07:02:54;;;;;;;14.83;11.53;;;0.60;1.00;1.50;100196.00;;;;4950909;28;20456;-77
2021/12/03 07:05:23;;;;;;;11.80;10.60;;;0.60;1.00;1.50;100181.00;;;;4955539;28;20472;-74
2021/12/03 07:07:51;;;;;;;12.60;10.73;;;0.70;1.00;1.60;100200.00;;;;4964813;28;20463;-76
2021/12/03 07:10:20;;;;;;;12.73;11.17;;;0.70;1.00;1.60;100180.00;;;;4964591;28;20453;-73
2021/12/03 07:12:48;;;;;;;13.10;10.73;;;0.70;1.00;1.60;100201.00;;;;4964475;28;20534;-74
2021/12/03 07:15:18;;;;;;;13.33;11.13;;;0.70;1.00;1.60;100196.00;;;;4956183;28;20543;-74
2021/12/03 07:17:49;;;;;;;14.07;12.30;;;0.70;1.00;1.60;100193.00;;;;4956331;28;20957;-74
2021/12/03 07:20:22;;;;;;;14.63;11.70;;;0.70;1.00;1.70;100211.00;;;;4956985;28;20455;-76
2021/12/03 07:22:51;;;;;;;13.77;12.37;;;0.80;1.00;1.70;100223.00;;;;4952731;28;20542;-75
2021/12/03 07:25:21;;;;;;;12.77;11.40;;;0.70;1.00;1.80;100210.00;;;;4955444;28;20586;-77
2021/12/03 07:27:50;;;;;;;12.17;10.97;;;0.80;1.00;2.00;100230.00;;;;4970861;28;20467;-74
2021/12/03 07:30:20;;;;;;;13.13;11.10;;;0.90;1.00;2.10;100223.00;;;;4963490;28;20480;-76
2021/12/03 07:32:50;;;;;;;13.60;11.70;;;1.00;1.00;2.10;100167.00;;;;4964259;28;20892;-76
2021/12/03 07:35:20;;;;;;;12.80;11.47;;;1.00;1.00;2.00;100214.00;;;;4984309;28;20480;-77
2021/12/03 07:37:48;;;;;;;13.17;11.43;;;1.10;1.00;2.00;100215.00;;;;4966831;28;20454;-76
2021/12/03 07:40:18;;;;;;;13.50;12.10;;;1.10;1.00;2.00;100215.00;;;;4984404;28;20575;-77
2021/12/03 07:42:46;;;;;;;13.90;12.20;;;1.00;1.00;2.00;100209.00;;;;4961378;28;20548;-77
2021/12/03 07:45:16;;;;;;;13.90;12.33;;;1.00;1.00;2.00;100212.00;;;;4978658;28;20549;-77
2021/12/03 07:47:45;;;;;;;14.47;11.87;;;1.00;1.00;2.00;100220.00;;;;4971047;28;20475;-77
2021/12/03 07:50:15;;;;;;;13.27;11.87;;;1.00;1.00;2.10;100220.00;;;;4966362;28;20519;-78
2021/12/03 07:52:45;;;;;;;12.50;11.20;;;1.10;1.00;2.20;100216.00;;;;4997422;28;20439;-75
2021/12/03 07:55:13;;;;;;;14.00;12.07;;;1.10;1.00;2.10;100231.00;;;;4965947;28;20574;-78
2021/12/03 07:57:48;;;;;;;13.60;11.93;;;1.20;1.00;2.10;100208.00;;;;4978200;28;20461;-78
2021/12/03 08:00:17;;;;;;;15.20;11.63;;;1.20;1.00;2.10;100213.00;;;;4973067;28;20477;-76
2021/12/03 08:02:58;;;;;;;12.53;11.23;;;1.20;1.00;2.30;100230.00;;;;4968148;28;20446;-78
2021/12/03 08:05:27;;;;;;;12.70;11.37;;;1.40;1.00;2.30;100204.00;;;;4990147;28;20502;-76
2021/12/03 08:07:58;;;;;;;13.47;12.07;;;1.40;1.00;2.30;100218.00;;;;4971482;28;20544;-75
2021/12/03 08:10:27;;;;;;;14.07;12.00;;;1.40;1.00;2.40;100257.00;;;;4998843;28;20510;-74
2021/12/03 08:12:56;;;;;;;13.50;12.03;;;1.40;1.00;2.40;100219.00;;;;4974183;28;20458;-74
2021/12/03 08:15:24;;;;;;;13.00;11.30;;;1.60;1.00;2.50;100225.00;;;;4980831;28;20486;-79
2021/12/03 08:17:53;;;;;;;12.60;11.20;;;1.50;1.00;2.50;100205.00;;;;4965442;28;20510;-78
2021/12/03 08:20:21;;;;;;;13.23;11.83;;;1.60;1.00;2.60;100177.00;;;;4985025;28;20453;-77
2021/12/03 08:22:56;;;;;;;13.17;11.90;;;1.60;1.00;2.70;100217.00;;;;4965915;28;20459;-77
2021/12/03 08:25:26;;;;;;;12.50;10.83;;;1.70;1.00;2.70;100221.00;;;;4961596;28;20480;-78
2021/12/03 08:27:54;;;;;;;12.77;11.03;;;1.80;1.00;2.80;100219.00;;;;4955216;29;20468;-77
2021/12/03 08:30:25;;;;;;;15.07;11.47;;;1.90;1.00;3.10;100221.00;;;;4962263;28;20451;-78
2021/12/03 08:32:54;;;;;;;12.70;11.37;;;2.10;1.00;3.40;100222.00;;;;4960668;28;20887;-78
2021/12/03 08:35:22;;;;;;;12.27;10.73;;;2.20;1.00;3.40;100179.00;;;;4968945;28;20579;-76
2021/12/03 08:37:51;;;;;;;12.77;10.70;;;2.40;1.00;3.70;100221.00;;;;4975746;28;20453;-77
2021/12/03 08:40:22;;;;;;;13.23;10.87;;;2.60;1.00;3.70;100204.00;;;;4969386;28;20550;-77
2021/12/03 08:42:52;;;;;;;12.17;10.97;;;2.70;1.00;3.60;100230.00;;;;4986055;28;20482;-77
2021/12/03 08:45:21;;;;;;;12.83;11.00;;;2.70;1.00;3.80;100225.00;;;;4965817;28;20491;-75
2021/12/03 08:47:53;;;;;;;11.53;10.43;;;2.80;1.00;4.10;100228.00;;;;4991678;28;20459;-75
2021/12/03 08:50:29;;;;;;;15.30;12.33;;;3.00;1.00;4.10;100231.00;;;;4970054;28;20452;-77
2021/12/03 08:55:49;;;;;;;12.33;10.70;;;3.10;1.00;4.20;100222.00;;;;4980171;28;20475;-74
2021/12/03 08:58:19;;;;;;;10.97;9.80;;;3.20;1.00;4.40;100213.00;;;;5000110;28;20443;-75
2021/12/03 09:00:48;;;;;;;10.77;9.07;;;3.20;1.00;4.30;100191.00;;;;4971794;28;20532;-78
2021/12/03 09:03:17;;;;;;;12.13;10.83;;;3.10;1.00;4.20;100210.00;;;;4987644;28;20466;-76
2021/12/03 09:05:47;;;;;;;12.33;9.50;;;3.20;1.00;4.10;100200.00;;;;4976357;28;20488;-77
2021/12/03 09:08:15;;;;;;;11.60;10.40;;;3.20;1.00;4.00;100202.00;;;;4986367;28;20454;-77
2021/12/03 09:10:44;;;;;;;11.93;10.70;;;3.10;1.00;4.10;100216.00;;;;4976466;28;20480;-76
2021/12/03 09:13:14;;;;;;;13.37;10.60;;;3.10;1.00;4.10;100222.00;;;;4969561;28;20510;-77
2021/12/03 09:15:50;;;;;;;11.27;10.07;;;3.20;1.00;4.10;100230.00;;;;4984393;28;20506;-78
2021/12/03 09:18:30;;;;;;;15.00;12.07;;;3.10;1.00;3.90;100222.00;;;;4974648;28;20462;-78
2021/12/03 09:21:23;;;;;;;11.80;10.60;;;3.00;1.00;3.90;100219.00;;;;4990957;28;20460;-77
2021/12/03 09:24:04;;;;;;;13.20;11.63;;;2.90;1.00;3.80;100195.00;;;;4965239;28;20559;-78
2021/12/03 09:26:36;;;;;;;12.27;10.77;;;2.90;1.00;4.00;100216.00;;;;4957817;29;20907;-77
2021/12/03 09:29:07;;;;;;;13.53;11.30;;;2.90;1.00;4.00;100218.00;;;;4963133;28;20457;-77
2021/12/03 09:31:37;;;;;;;13.47;11.00;;;3.00;1.00;4.10;100230.00;;;;4971499;28;20455;-77
2021/12/03 09:34:09;;;;;;;13.40;11.70;;;3.10;1.00;3.90;100211.00;;;;4992003;28;20475;-72
2021/12/03 09:36:40;;;;;;;13.83;11.60;;;3.10;1.00;3.90;100223.00;;;;4999898;28;20467;-74
2021/12/03 09:39:15;;;;;;;13.10;11.70;;;3.10;1.00;4.20;100220.00;;;;5000085;28;20440;-75
2021/12/03 09:41:43;;;;;;;13.10;11.33;;;3.10;1.00;4.10;100209.00;;;;4968523;28;20497;-78
2021/12/03 09:44:14;;;;;;;15.10;11.93;;;3.10;1.00;4.20;100198.00;;;;4981911;28;20523;-77
2021/12/03 09:46:42;;;;;;;15.00;11.13;;;3.20;1.00;4.20;100210.00;;;;4971535;28;20479;-78
2021/12/03 09:49:26;;;;;;;12.23;11.00;;;3.30;1.00;4.30;100192.00;;;;4980810;28;20479;-78
2021/12/03 09:52:13;;;;;;;14.40;11.20;;;3.30;1.00;4.50;100200.00;;;;4979787;28;20510;-77
2021/12/03 09:54:44;;;;;;;12.67;11.37;;;3.40;1.00;4.80;100169.00;;;;4973015;28;20496;-75
2021/12/03 09:57:19;;;;;;;12.20;10.90;;;3.80;1.00;4.70;100207.00;;;;4977367;28;20459;-77
2021/12/03 10:03:14;;;;;;;13.03;11.70;;;3.70;1.00;4.50;100238.00;;;;4980356;28;20443;-77
2021/12/03 10:14:47;;;;;;;13.63;11.27;;;3.80;1.00;4.80;100199.00;;;;4938365;28;20488;-76
2021/12/03 10:20:12;;;;;;;13.97;12.23;;;3.80;1.00;4.90;100211.00;;;;4980804;28;20521;-78
2021/12/03 10:31:27;;;;;;;12.47;11.20;;;3.70;1.00;4.70;100202.00;;;;4981904;28;20470;-77
2021/12/03 10:34:06;;;;;;;13.27;11.97;;;3.70;1.00;4.70;100214.00;;;;4969781;28;20454;-77
2021/12/03 10:36:46;;;;;;;14.20;12.63;;;3.60;1.00;4.60;100204.00;;;;4984886;28;20487;-76
2021/12/03 10:39:28;;;;;;;16.23;11.43;;;3.50;1.00;4.50;100185.00;;;;4984288;28;20460;-77
2021/12/03 10:42:09;;;;;;;14.50;12.97;;;3.50;1.00;4.50;100180.00;;;;4981939;28;20713;-77
2021/12/03 10:45:05;;;;;;;14.70;12.70;;;3.40;1.00;4.40;100192.00;;;;4982623;28;20506;-76
2021/12/03 10:47:44;;;;;;;12.97;10.90;;;3.50;1.00;4.70;100180.00;;;;4980326;28;20483;-77
2021/12/03 10:50:40;;;;;;;14.60;12.60;;;3.70;1.00;5.00;100141.00;;;;4973713;28;20984;-77
2021/12/03 10:53:26;;;;;;;16.07;14.37;;;4.00;1.00;5.00;100164.00;;;;4960883;28;20556;-77
2021/12/03 11:13:30;;;;;;;14.10;12.47;;;4.00;1.00;4.80;100131.00;;;;4981962;28;20487;-76
2021/12/03 11:39:16;;;;;;;10.47;9.47;;;4.30;1.00;5.10;100124.00;;;;4948482;28;20543;-74
2021/12/03 12:44:40;;;;;;;6.80;6.20;;;4.70;1.00;5.90;100049.00;;;;4972438;28;20452;-76
2021/12/03 13:10:50;;;;;;;8.33;6.83;;;3.90;1.00;4.70;100038.00;;;;4963180;28;20470;-73
2021/12/03 13:13:56;;;;;;;9.37;8.13;;;3.80;1.00;4.70;100028.00;;;;4979584;28;20984;-75
2021/12/03 14:37:37;;;;;;;9.83;8.90;;;3.30;1.00;4.30;100000.00;;;;4949290;28;20471;-76
2021/12/03 14:43:13;;;;;;;8.13;7.43;;;3.20;1.00;4.30;100005.00;;;;4952921;28;20460;-75
2021/12/03 14:48:52;;;;;;;8.00;7.20;;;3.30;1.00;4.20;99971.00;;;;5094485;28;20544;-79
2021/12/03 14:54:38;;;;;;;7.30;6.60;;;3.20;1.00;4.20;99958.00;;;;5033719;28;20473;-76
2021/12/03 14:57:22;;;;;;;9.07;7.50;;;3.30;1.00;4.30;99983.00;;;;5011373;28;20446;-79
2021/12/03 15:00:01;;;;;;;9.40;7.17;;;3.20;1.00;4.30;99946.00;;;;5030812;28;21306;-74
2021/12/03 15:08:21;;;;;;;6.40;5.47;;;3.30;1.00;4.20;99968.00;;;;5041313;28;20843;-81
2021/12/03 15:19:12;;;;;;;8.93;6.60;;;3.20;1.00;4.30;99964.00;;;;5072675;28;20456;-80
2021/12/03 15:21:59;;;;;;;7.43;6.47;;;3.30;1.00;4.30;99956.00;;;;5073059;28;20448;-80
2021/12/03 15:24:42;;;;;;;7.27;6.00;;;3.30;1.00;4.20;99932.00;;;;5059775;28;20474;-78
2021/12/03 15:30:27;;;;;;;7.90;5.83;;;3.20;1.00;4.30;99956.00;;;;5074618;28;20440;-78
2021/12/03 15:33:02;;;;;;;6.57;5.87;;;3.40;1.00;4.30;99944.00;;;;5065272;28;20448;-78
2021/12/03 15:35:40;;;;;;;8.40;6.00;;;3.30;1.00;4.30;99929.00;;;;5045247;28;20488;-80
2021/12/03 15:41:17;;;;;;;6.13;5.50;;;3.30;1.00;4.30;99927.00;;;;5090649;28;20917;-78